sensor_id;sensor_type;location;lat;lon;timestamp;pressure;altitude;pressure_sealevel;temperature;humidity
75867;BME280;64513;56.258;43.980;2022-12-05T00:01:37;102909.12;;;-5.47;63.69
75867;BME280;64513;56.258;43.980;2022-12-05T00:04:05;102900.46;;;-5.46;63.48
75867;BME280;64513;56.258;43.980;2022-12-05T00:06:31;102897.14;;;-5.48;63.79
75867;BME280;64513;56.258;43.980;2022-12-05T00:08:57;102897.23;;;-5.49;63.67
75867;BME280;64513;56.258;43.980;2022-12-05T00:11:58;102902.39;;;-5.49;63.62
75867;BME280;64513;56.258;43.980;2022-12-05T00:13:51;102898.06;;;-5.49;63.75
75867;BME280;64513;56.258;43.980;2022-12-05T00:16:18;102899.81;;;-5.49;63.86
75867;BME280;64513;56.258;43.980;2022-12-05T00:18:42;102894.66;;;-5.49;63.51
75867;BME280;64513;56.258;43.980;2022-12-05T00:21:11;102898.16;;;-5.50;63.51
75867;BME280;64513;56.258;43.980;2022-12-05T00:23:33;102905.19;;;-5.52;63.65
75867;BME280;64513;56.258;43.980;2022-12-05T00:26:00;102904.36;;;-5.53;63.55
75867;BME280;64513;56.258;43.980;2022-12-05T00:28:22;102897.64;;;-5.55;63.46
75867;BME280;64513;56.258;43.980;2022-12-05T00:30:47;102895.15;;;-5.57;63.73
75867;BME280;64513;56.258;43.980;2022-12-05T00:33:11;102899.39;;;-5.56;63.75
75867;BME280;64513;56.258;43.980;2022-12-05T00:35:35;102893.31;;;-5.55;63.49
75867;BME280;64513;56.258;43.980;2022-12-05T00:37:59;102895.05;;;-5.55;63.51
75867;BME280;64513;56.258;43.980;2022-12-05T00:40:23;102885.58;;;-5.55;63.77
75867;BME280;64513;56.258;43.980;2022-12-05T00:42:48;102891.65;;;-5.56;63.59
75867;BME280;64513;56.258;43.980;2022-12-05T00:45:12;102898.55;;;-5.56;63.46
75867;BME280;64513;56.258;43.980;2022-12-05T00:47:36;102890.73;;;-5.55;63.71
75867;BME280;64513;56.258;43.980;2022-12-05T00:50:00;102898.55;;;-5.56;63.56
75867;BME280;64513;56.258;43.980;2022-12-05T00:52:26;102889.08;;;-5.56;63.42
75867;BME280;64513;56.258;43.980;2022-12-05T00:54:51;102892.57;;;-5.57;63.47
75867;BME280;64513;56.258;43.980;2022-12-05T00:57:16;102890.91;;;-5.58;63.68
75867;BME280;64513;56.258;43.980;2022-12-05T00:59:40;102888.34;;;-5.58;63.54
75867;BME280;64513;56.258;43.980;2022-12-05T01:02:05;102884.09;;;-5.59;63.61
75867;BME280;64513;56.258;43.980;2022-12-05T01:04:30;102892.75;;;-5.60;63.47
75867;BME280;64513;56.258;43.980;2022-12-05T01:06:56;102884.09;;;-5.59;63.60
75867;BME280;64513;56.258;43.980;2022-12-05T01:09:22;102887.59;;;-5.60;63.16
75867;BME280;64513;56.258;43.980;2022-12-05T01:11:48;102878.20;;;-5.61;63.05
75867;BME280;64513;56.258;43.980;2022-12-05T01:14:15;102879.95;;;-5.61;63.32
75867;BME280;64513;56.258;43.980;2022-12-05T01:16:41;102879.95;;;-5.61;63.38
75867;BME280;64513;56.258;43.980;2022-12-05T01:21:53;102882.62;;;-5.63;63.15
75867;BME280;64513;56.258;43.980;2022-12-05T01:24:20;102875.91;;;-5.66;62.93
75867;BME280;64513;56.258;43.980;2022-12-05T01:26:46;102872.71;;;-5.69;62.74
75867;BME280;64513;56.258;43.980;2022-12-05T01:29:31;102869.39;;;-5.71;63.13
75867;BME280;64513;56.258;43.980;2022-12-05T01:31:56;102874.55;;;-5.71;63.00
75867;BME280;64513;56.258;43.980;2022-12-05T01:34:20;102878.05;;;-5.72;63.20
75867;BME280;64513;56.258;43.980;2022-12-05T01:36:46;102879.89;;;-5.74;63.07
75867;BME280;64513;56.258;43.980;2022-12-05T01:39:12;102880.72;;;-5.74;63.26
75867;BME280;64513;56.258;43.980;2022-12-05T01:46:52;102878.05;;;-5.72;63.30
75867;BME280;64513;56.258;43.980;2022-12-05T01:49:39;102866.08;;;-5.73;63.62
75867;BME280;64513;56.258;43.980;2022-12-05T01:54:53;102871.23;;;-5.73;63.57
75867;BME280;64513;56.258;43.980;2022-12-05T01:57:18;102866.91;;;-5.73;63.53
75867;BME280;64513;56.258;43.980;2022-12-05T02:00:34;102868.66;;;-5.73;63.61
75867;BME280;64513;56.258;43.980;2022-12-05T02:02:31;102865.16;;;-5.72;63.52
75867;BME280;64513;56.258;43.980;2022-12-05T02:08:04;102860.09;;;-5.74;63.67
75867;BME280;64513;56.258;43.980;2022-12-05T02:10:36;102860.92;;;-5.73;63.99
75867;BME280;64513;56.258;43.980;2022-12-05T02:12:58;102851.53;;;-5.74;63.86
75867;BME280;64513;56.258;43.980;2022-12-05T02:36:06;102835.52;;;-5.79;63.68
75867;BME280;64513;56.258;43.980;2022-12-05T02:47:09;102824.78;;;-5.86;63.76
75867;BME280;64513;56.258;43.980;2022-12-05T02:49:36;102825.61;;;-5.85;64.00
75867;BME280;64513;56.258;43.980;2022-12-05T02:52:03;102821.28;;;-5.85;64.11
75867;BME280;64513;56.258;43.980;2022-12-05T02:54:49;102826.34;;;-5.83;64.33
75867;BME280;64513;56.258;43.980;2022-12-05T02:57:15;102828.70;;;-5.80;64.34
75867;BME280;64513;56.258;43.980;2022-12-05T02:59:40;102826.87;;;-5.78;64.00
75867;BME280;64513;56.258;43.980;2022-12-05T03:02:07;102818.30;;;-5.79;64.19
75867;BME280;64513;56.258;43.980;2022-12-05T03:04:32;102817.39;;;-5.78;64.07
75867;BME280;64513;56.258;43.980;2022-12-05T03:06:59;102812.14;;;-5.76;64.01
75867;BME280;64513;56.258;43.980;2022-12-05T03:17:48;102799.98;;;-5.74;64.01
75867;BME280;64513;56.258;43.980;2022-12-05T03:20:33;102796.67;;;-5.76;63.98
75867;BME280;64513;56.258;43.980;2022-12-05T03:46:40;102781.28;;;-5.90;63.77
75867;BME280;64513;56.258;43.980;2022-12-05T03:54:57;102775.48;;;-5.94;63.75
75867;BME280;64513;56.258;43.980;2022-12-05T03:58:19;102762.70;;;-5.95;63.51
75867;BME280;64513;56.258;43.980;2022-12-05T04:03:31;102763.70;;;-5.98;63.15
75867;BME280;64513;56.258;43.980;2022-12-05T04:09:20;102758.77;;;-6.01;63.24
75867;BME280;64513;56.258;43.980;2022-12-05T04:11:14;102767.87;;;-5.29;83.06
75867;BME280;64513;56.258;43.980;2022-12-05T04:13:40;102772.28;;;-4.91;75.16
75867;BME280;64513;56.258;43.980;2022-12-05T04:16:57;102761.33;;;-4.82;71.83
75867;BME280;64513;56.258;43.980;2022-12-05T04:19:33;102755.34;;;-4.83;69.46
75867;BME280;64513;56.258;43.980;2022-12-05T04:22:17;102761.86;;;-4.90;67.72
75867;BME280;64513;56.258;43.980;2022-12-05T04:24:42;102751.20;;;-4.98;66.92
75867;BME280;64513;56.258;43.980;2022-12-05T04:36:22;102746.02;;;-5.23;65.51
75867;BME280;64513;56.258;43.980;2022-12-05T04:39:08;102744.56;;;-5.27;65.27
75867;BME280;64513;56.258;43.980;2022-12-05T04:42:24;102741.44;;;-5.33;65.46
75867;BME280;64513;56.258;43.980;2022-12-05T04:47:06;102735.78;;;-5.38;65.12
75867;BME280;64513;56.258;43.980;2022-12-05T04:49:32;102733.39;;;-5.41;64.90
75867;BME280;64513;56.258;43.980;2022-12-05T04:52:01;102736.99;;;-5.43;64.67
75867;BME280;64513;56.258;43.980;2022-12-05T05:00:16;102728.63;;;-5.47;64.01
75867;BME280;64513;56.258;43.980;2022-12-05T05:02:44;102725.54;;;-5.52;63.75
75867;BME280;64513;56.258;43.980;2022-12-05T05:05:10;102719.75;;;-5.55;63.78
75867;BME280;64513;56.258;43.980;2022-12-05T05:08:14;102721.59;;;-5.57;63.73
75867;BME280;64513;56.258;43.980;2022-12-05T05:10:04;102719.11;;;-5.59;63.71
75867;BME280;64513;56.258;43.980;2022-12-05T05:12:29;102725.19;;;-5.60;63.84
75867;BME280;64513;56.258;43.980;2022-12-05T05:14:53;102708.80;;;-5.59;63.85
75867;BME280;64513;56.258;43.980;2022-12-05T05:17:17;102706.31;;;-5.60;63.90
75867;BME280;64513;56.258;43.980;2022-12-05T05:19:41;102698.48;;;-5.59;64.09
75867;BME280;64513;56.258;43.980;2022-12-05T05:22:05;102688.17;;;-5.59;63.78
75867;BME280;64513;56.258;43.980;2022-12-05T05:24:29;102686.33;;;-5.57;63.93
75867;BME280;64513;56.258;43.980;2022-12-05T05:26:54;102678.59;;;-5.57;64.07
75867;BME280;64513;56.258;43.980;2022-12-05T05:29:18;102680.98;;;-5.54;64.07
75867;BME280;64513;56.258;43.980;2022-12-05T05:31:42;102672.31;;;-5.53;64.09
75867;BME280;64513;56.258;43.980;2022-12-05T05:34:08;102680.75;;;-5.51;64.15
75867;BME280;64513;56.258;43.980;2022-12-05T05:36:33;102670.34;;;-5.49;64.00
75867;BME280;64513;56.258;43.980;2022-12-05T05:38:59;102669.32;;;-5.47;63.97
75867;BME280;64513;56.258;43.980;2022-12-05T05:41:43;102670.05;;;-5.45;63.97
75867;BME280;64513;56.258;43.980;2022-12-05T05:44:07;102666.55;;;-5.44;64.04
75867;BME280;64513;56.258;43.980;2022-12-05T05:46:35;102668.10;;;-5.41;64.02
75867;BME280;64513;56.258;43.980;2022-12-05T05:48:59;102664.70;;;-5.42;63.83
75867;BME280;64513;56.258;43.980;2022-12-05T05:51:24;102668.00;;;-5.40;63.70
75867;BME280;64513;56.258;43.980;2022-12-05T05:53:49;102674.81;;;-5.39;63.66
75867;BME280;64513;56.258;43.980;2022-12-05T05:56:15;102664.40;;;-5.37;63.61
75867;BME280;64513;56.258;43.980;2022-12-05T05:58:42;102671.21;;;-5.36;63.46
75867;BME280;64513;56.258;43.980;2022-12-05T06:01:09;102669.46;;;-5.36;63.41
75867;BME280;64513;56.258;43.980;2022-12-05T06:03:34;102674.39;;;-5.33;63.47
75867;BME280;64513;56.258;43.980;2022-12-05T06:06:00;102669.23;;;-5.33;63.27
75867;BME280;64513;56.258;43.980;2022-12-05T06:08:27;102677.80;;;-5.32;63.41
75867;BME280;64513;56.258;43.980;2022-12-05T06:10:51;102676.05;;;-5.32;63.37
75867;BME280;64513;56.258;43.980;2022-12-05T06:13:15;102676.05;;;-5.32;63.54
75867;BME280;64513;56.258;43.980;2022-12-05T06:15:39;102672.53;;;-5.31;63.49
75867;BME280;64513;56.258;43.980;2022-12-05T06:18:03;102670.69;;;-5.28;63.35
75867;BME280;64513;56.258;43.980;2022-12-05T06:20:27;102660.37;;;-5.28;63.35
75867;BME280;64513;56.258;43.980;2022-12-05T06:22:51;102656.87;;;-5.27;63.44
75867;BME280;64513;56.258;43.980;2022-12-05T06:25:16;102654.19;;;-5.26;63.50
75867;BME280;64513;56.258;43.980;2022-12-05T06:27:40;102656.66;;;-5.24;63.73
75867;BME280;64513;56.258;43.980;2022-12-05T06:30:05;102661.72;;;-5.23;63.76
75867;BME280;64513;56.258;43.980;2022-12-05T06:32:29;102652.96;;;-5.20;63.70
75867;BME280;64513;56.258;43.980;2022-12-05T06:34:54;102658.81;;;-5.18;63.63
75867;BME280;64513;56.258;43.980;2022-12-05T06:37:18;102636.42;;;-5.18;63.70
75867;BME280;64513;56.258;43.980;2022-12-05T06:39:42;102645.72;;;-5.15;63.67
75867;BME280;64513;56.258;43.980;2022-12-05T06:42:06;102648.09;;;-5.12;63.74
75867;BME280;64513;56.258;43.980;2022-12-05T06:44:31;102638.60;;;-5.12;63.64
75867;BME280;64513;56.258;43.980;2022-12-05T06:46:55;102645.31;;;-5.09;63.87
75867;BME280;64513;56.258;43.980;2022-12-05T06:49:21;102646.97;;;-5.08;63.66
75867;BME280;64513;56.258;43.980;2022-12-05T06:51:47;102639.03;;;-5.05;63.70
75867;BME280;64513;56.258;43.980;2022-12-05T06:54:12;102648.42;;;-5.04;63.84
75867;BME280;64513;56.258;43.980;2022-12-05T06:56:37;102648.19;;;-5.01;63.66
75867;BME280;64513;56.258;43.980;2022-12-05T06:59:01;102651.49;;;-4.99;63.83
75867;BME280;64513;56.258;43.980;2022-12-05T07:01:25;102647.98;;;-4.98;63.65
75867;BME280;64513;56.258;43.980;2022-12-05T07:04:29;102650.47;;;-4.97;63.42
75867;BME280;64513;56.258;43.980;2022-12-05T07:06:54;102647.06;;;-4.97;63.52
75867;BME280;64513;56.258;43.980;2022-12-05T07:09:50;102644.48;;;-4.97;63.38
75867;BME280;64513;56.258;43.980;2022-12-05T07:12:06;102644.48;;;-4.97;63.47
75867;BME280;64513;56.258;43.980;2022-12-05T07:14:30;102638.39;;;-4.96;63.53
75867;BME280;64513;56.258;43.980;2022-12-05T07:16:54;102642.62;;;-4.95;63.47
75867;BME280;64513;56.258;43.980;2022-12-05T07:19:18;102645.00;;;-4.92;63.70
75867;BME280;64513;56.258;43.980;2022-12-05T07:21:42;102645.72;;;-4.90;63.59
75867;BME280;64513;56.258;43.980;2022-12-05T07:24:07;102641.98;;;-4.86;63.66
75867;BME280;64513;56.258;43.980;2022-12-05T07:26:31;102638.47;;;-4.85;63.79
75867;BME280;64513;56.258;43.980;2022-12-05T07:28:56;102634.75;;;-4.81;63.86
75867;BME280;64513;56.258;43.980;2022-12-05T07:31:21;102626.80;;;-4.78;63.53
75867;BME280;64513;56.258;43.980;2022-12-05T07:33:47;102630.11;;;-4.76;63.82
75867;BME280;64513;56.258;43.980;2022-12-05T07:36:31;102620.27;;;-4.71;63.96
75867;BME280;64513;56.258;43.980;2022-12-05T07:38:56;102625.22;;;-4.68;63.92
75867;BME280;64513;56.258;43.980;2022-12-05T07:41:41;102623.36;;;-4.66;63.82
75867;BME280;64513;56.258;43.980;2022-12-05T07:44:05;102625.84;;;-4.64;63.90
75867;BME280;64513;56.258;43.980;2022-12-05T07:46:29;102617.98;;;-4.63;63.77
75867;BME280;64513;56.258;43.980;2022-12-05T07:48:54;102619.64;;;-4.62;64.03
75867;BME280;64513;56.258;43.980;2022-12-05T07:51:19;102618.71;;;-4.61;63.91
75867;BME280;64513;56.258;43.980;2022-12-05T07:53:44;102617.78;;;-4.60;63.94
75867;BME280;64513;56.258;43.980;2022-12-05T07:56:10;102615.92;;;-4.57;64.18
75867;BME280;64513;56.258;43.980;2022-12-05T07:58:54;102609.83;;;-4.56;63.89
75867;BME280;64513;56.258;43.980;2022-12-05T08:04:04;102607.00;;;-4.53;63.72
75867;BME280;64513;56.258;43.980;2022-12-05T08:06:29;102599.97;;;-4.51;63.57
75867;BME280;64513;56.258;43.980;2022-12-05T08:08:54;102597.28;;;-4.50;63.91
75867;BME280;64513;56.258;43.980;2022-12-05T08:11:39;102595.42;;;-4.48;63.98
75867;BME280;64513;56.258;43.980;2022-12-05T08:14:04;102596.86;;;-4.44;64.00
75867;BME280;64513;56.258;43.980;2022-12-05T08:16:30;102593.93;;;-4.39;64.09
75867;BME280;64513;56.258;43.980;2022-12-05T08:18:57;102589.59;;;-4.39;63.99
75867;BME280;64513;56.258;43.980;2022-12-05T08:21:22;102591.86;;;-4.34;64.17
75867;BME280;64513;56.258;43.980;2022-12-05T08:23:46;102584.83;;;-4.32;64.20
75867;BME280;64513;56.258;43.980;2022-12-05T08:26:31;102582.95;;;-4.30;64.16
75867;BME280;64513;56.258;43.980;2022-12-05T08:29:18;102575.92;;;-4.28;64.25
75867;BME280;64513;56.258;43.980;2022-12-05T08:31:44;102577.58;;;-4.27;64.10
75867;BME280;64513;56.258;43.980;2022-12-05T08:34:10;102564.66;;;-4.27;64.40
75867;BME280;64513;56.258;43.980;2022-12-05T08:36:34;102580.88;;;-4.25;64.23
75867;BME280;64513;56.258;43.980;2022-12-05T08:39:02;102584.14;;;-4.23;64.26
75867;BME280;64513;56.258;43.980;2022-12-05T08:41:27;102583.11;;;-4.20;64.45
75867;BME280;64513;56.258;43.980;2022-12-05T08:43:52;102578.55;;;-4.17;64.28
75867;BME280;64513;56.258;43.980;2022-12-05T08:46:17;102569.86;;;-4.16;64.00
75867;BME280;64513;56.258;43.980;2022-12-05T08:48:41;102570.58;;;-4.14;64.17
75867;BME280;64513;56.258;43.980;2022-12-05T08:51:08;102577.40;;;-4.13;64.00
75867;BME280;64513;56.258;43.980;2022-12-05T08:53:34;102578.11;;;-4.11;64.00
75867;BME280;64513;56.258;43.980;2022-12-05T08:56:19;102571.05;;;-4.09;64.03
75867;BME280;64513;56.258;43.980;2022-12-05T08:58:43;102577.86;;;-4.08;63.89
75867;BME280;64513;56.258;43.980;2022-12-05T09:03:53;102572.70;;;-4.08;64.15
75867;BME280;64513;56.258;43.980;2022-12-05T09:06:19;102564.01;;;-4.07;63.83
75867;BME280;64513;56.258;43.980;2022-12-05T09:08:44;102564.01;;;-4.07;63.94
75867;BME280;64513;56.258;43.980;2022-12-05T09:11:42;102558.02;;;-4.07;64.07
75867;BME280;64513;56.258;43.980;2022-12-05T09:13:38;102555.33;;;-4.06;63.96
75867;BME280;64513;56.258;43.980;2022-12-05T09:16:24;102553.45;;;-4.04;63.89
75867;BME280;64513;56.258;43.980;2022-12-05T09:18:50;102548.28;;;-4.04;64.00
75867;BME280;64513;56.258;43.980;2022-12-05T09:24:01;102537.73;;;-4.01;64.04
75867;BME280;64513;56.258;43.980;2022-12-05T09:26:27;102540.20;;;-3.99;64.21
75867;BME280;64513;56.258;43.980;2022-12-05T09:28:52;102541.85;;;-3.98;64.27
75867;BME280;64513;56.258;43.980;2022-12-05T09:31:19;102527.88;;;-3.96;64.36
75867;BME280;64513;56.258;43.980;2022-12-05T09:33:44;102525.19;;;-3.94;64.57
75867;BME280;64513;56.258;43.980;2022-12-05T09:36:45;102527.63;;;-3.93;64.34
75867;BME280;64513;56.258;43.980;2022-12-05T09:38:36;102528.34;;;-3.91;64.38
75867;BME280;64513;56.258;43.980;2022-12-05T09:41:04;102519.77;;;-3.91;64.19
75867;BME280;64513;56.258;43.980;2022-12-05T09:43:30;102526.69;;;-3.92;64.27
75867;BME280;64513;56.258;43.980;2022-12-05T09:48:39;102517.06;;;-3.90;64.08
75867;BME280;64513;56.258;43.980;2022-12-05T09:51:07;102504.14;;;-3.90;64.04
75867;BME280;64513;56.258;43.980;2022-12-05T09:53:34;102504.14;;;-3.90;64.30
75867;BME280;64513;56.258;43.980;2022-12-05T09:59:03;102501.34;;;-3.86;65.27
75867;BME280;64513;56.258;43.980;2022-12-05T10:10:45;102495.83;;;-3.82;66.25
75867;BME280;64513;56.258;43.980;2022-12-05T10:13:33;102491.48;;;-3.81;66.73
75867;BME280;64513;56.258;43.980;2022-12-05T10:15:58;102482.67;;;-3.79;66.53
75867;BME280;64513;56.258;43.980;2022-12-05T10:24:16;102467.84;;;-3.77;66.76
75867;BME280;64513;56.258;43.980;2022-12-05T10:30:22;102464.20;;;-3.74;67.01
75867;BME280;64513;56.258;43.980;2022-12-05T10:32:16;102463.04;;;-3.70;67.09
75867;BME280;64513;56.258;43.980;2022-12-05T10:34:41;102469.63;;;-3.66;67.27
75867;BME280;64513;56.258;43.980;2022-12-05T10:37:25;102467.76;;;-3.64;67.40
75867;BME280;64513;56.258;43.980;2022-12-05T10:39:51;102467.50;;;-3.61;67.52
75867;BME280;64513;56.258;43.980;2022-12-05T10:42:19;102467.27;;;-3.58;67.51
75867;BME280;64513;56.258;43.980;2022-12-05T10:44:43;102460.22;;;-3.56;67.45
75867;BME280;64513;56.258;43.980;2022-12-05T10:47:08;102455.75;;;-3.54;67.23
75867;BME280;64513;56.258;43.980;2022-12-05T10:49:34;102456.46;;;-3.52;67.10
75867;BME280;64513;56.258;43.980;2022-12-05T10:51:58;102445.17;;;-3.51;67.00
75867;BME280;64513;56.258;43.980;2022-12-05T10:54:25;102448.47;;;-3.49;67.07
75867;BME280;64513;56.258;43.980;2022-12-05T10:56:51;102447.53;;;-3.48;67.05
75867;BME280;64513;56.258;43.980;2022-12-05T10:59:19;102444.83;;;-3.46;67.09
75867;BME280;64513;56.258;43.980;2022-12-05T11:01:46;102445.62;;;-3.46;67.14
75867;BME280;64513;56.258;43.980;2022-12-05T11:10:02;102447.98;;;-3.43;67.25
75867;BME280;64513;56.258;43.980;2022-12-05T11:12:46;102444.56;;;-3.43;67.07
75867;BME280;64513;56.258;43.980;2022-12-05T11:15:32;102445.62;;;-3.46;66.81
75867;BME280;64513;56.258;43.980;2022-12-05T11:18:00;102434.59;;;-3.48;66.75
75867;BME280;64513;56.258;43.980;2022-12-05T11:22:54;102431.30;;;-3.50;66.64
75867;BME280;64513;56.258;43.980;2022-12-05T11:25:39;102431.30;;;-3.50;66.63
75867;BME280;64513;56.258;43.980;2022-12-05T11:28:28;102424.48;;;-3.51;66.71
75867;BME280;64513;56.258;43.980;2022-12-05T11:37:00;102415.31;;;-3.55;66.54
75867;BME280;64513;56.258;43.980;2022-12-05T11:39:24;102420.72;;;-3.58;66.20
75867;BME280;64513;56.258;43.980;2022-12-05T11:54:12;102391.00;;;-3.64;66.95
75867;BME280;64513;56.258;43.980;2022-12-05T11:56:54;102398.05;;;-3.66;66.94
75867;BME280;64513;56.258;43.980;2022-12-05T12:07:43;102388.77;;;-3.68;67.17
75867;BME280;64513;56.258;43.980;2022-12-05T12:25:29;102379.94;;;-3.77;67.09
75867;BME280;64513;56.258;43.980;2022-12-05T12:39:02;102359.16;;;-3.86;66.86
75867;BME280;64513;56.258;43.980;2022-12-05T12:50:39;102355.64;;;-3.85;66.45
75867;BME280;64513;56.258;43.980;2022-12-05T12:53:27;102347.88;;;-3.85;66.59
75867;BME280;64513;56.258;43.980;2022-12-05T13:07:34;102320.50;;;-3.88;65.54
75867;BME280;64513;56.258;43.980;2022-12-05T13:10:02;102319.68;;;-3.89;65.51
75867;BME280;64513;56.258;43.980;2022-12-05T13:12:46;102327.55;;;-3.90;65.28
75867;BME280;64513;56.258;43.980;2022-12-05T13:17:58;102312.05;;;-3.90;64.51
75867;BME280;64513;56.258;43.980;2022-12-05T13:20:26;102308.75;;;-3.92;64.51
75867;BME280;64513;56.258;43.980;2022-12-05T13:22:53;102318.27;;;-3.93;65.01
75867;BME280;64513;56.258;43.980;2022-12-05T13:25:20;102313.92;;;-3.92;64.77
75867;BME280;64513;56.258;43.980;2022-12-05T13:28:05;102311.34;;;-3.92;64.46
75867;BME280;64513;56.258;43.980;2022-12-05T13:30:31;102303.58;;;-3.92;64.61
75867;BME280;64513;56.258;43.980;2022-12-05T13:33:00;102306.98;;;-3.92;64.35
75867;BME280;64513;56.258;43.980;2022-12-05T13:35:44;102307.93;;;-3.93;64.23
75867;BME280;64513;56.258;43.980;2022-12-05T13:41:54;102300.44;;;-3.96;64.19
75867;BME280;64513;56.258;43.980;2022-12-05T14:05:38;102297.64;;;-4.26;63.89
75867;BME280;64513;56.258;43.980;2022-12-05T14:11:09;102292.59;;;-4.28;64.38
75867;BME280;64513;56.258;43.980;2022-12-05T14:16:42;102275.45;;;-4.29;64.62
75867;BME280;64513;56.258;43.980;2022-12-05T14:19:28;102276.16;;;-4.27;64.15
75867;BME280;64513;56.258;43.980;2022-12-05T14:25:32;102276.98;;;-4.26;63.92
75867;BME280;64513;56.258;43.980;2022-12-05T14:27:28;102253.73;;;-4.26;64.82
75867;BME280;64513;56.258;43.980;2022-12-05T14:32:53;102243.52;;;-4.28;64.45
75867;BME280;64513;56.258;43.980;2022-12-05T14:44:15;102237.05;;;-4.33;65.12
75867;BME280;64513;56.258;43.980;2022-12-05T14:46:40;102234.70;;;-4.36;65.52
75867;BME280;64513;56.258;43.980;2022-12-05T14:52:10;102223.42;;;-4.35;66.02
75867;BME280;64513;56.258;43.980;2022-12-05T14:54:35;102216.62;;;-4.36;65.64
75867;BME280;64513;56.258;43.980;2022-12-05T14:57:04;102214.97;;;-4.37;65.93
75867;BME280;64513;56.258;43.980;2022-12-05T14:59:31;102217.44;;;-4.36;65.87
75867;BME280;64513;56.258;43.980;2022-12-05T15:07:46;102207.81;;;-4.34;65.97
75867;BME280;64513;56.258;43.980;2022-12-05T15:10:32;102204.64;;;-4.37;65.74
75867;BME280;64513;56.258;43.980;2022-12-05T15:24:18;102193.61;;;-4.39;66.08
75867;BME280;64513;56.258;43.980;2022-12-05T15:27:03;102186.80;;;-4.40;66.05
75867;BME280;64513;56.258;43.980;2022-12-05T15:29:29;102175.79;;;-4.42;66.10
75867;BME280;64513;56.258;43.980;2022-12-05T15:32:15;102168.86;;;-4.42;65.86
75867;BME280;64513;56.258;43.980;2022-12-05T15:35:00;102171.56;;;-4.43;65.99
75867;BME280;64513;56.258;43.980;2022-12-05T15:38:04;102174.14;;;-4.43;65.99
75867;BME280;64513;56.258;43.980;2022-12-05T15:40:16;102168.98;;;-4.43;65.77
75867;BME280;64513;56.258;43.980;2022-12-05T15:42:44;102174.14;;;-4.43;65.87
75867;BME280;64513;56.258;43.980;2022-12-05T15:45:29;102168.98;;;-4.43;65.90
75867;BME280;64513;56.258;43.980;2022-12-05T15:47:56;102164.64;;;-4.43;65.91
75867;BME280;64513;56.258;43.980;2022-12-05T15:57:03;102159.47;;;-4.43;66.01
